Overview Statistics Trail Chart Weather Telemetry Raw packets
 

This is the latest recevied telemetry packets stored in our database for station/object IS0KNW-10. If no packets are shown the sender has not sent any telemetry packets the latest 10 day(s).

Telemetry packets is used to share measurements like repeteater parameters, battery voltage, radiation readings (or any other measurements).

<< 1 2 3 4 >>
Time Press* Temp.in* Hum* QNH* Temp.out*
1788610287 997 hPa 37 C deg 28 % 1025.3 hPa 0 C deg
1788608457 997.2 hPa 35.7 C deg 29.1 % 1025.6 hPa 0 C deg
1788606626 997.4 hPa 34.8 C deg 29.9 % 1025.9 hPa 0 C deg
1788604796 997.6 hPa 34 C deg 31.8 % 1026.2 hPa 0 C deg
1788602966 997.8 hPa 33.2 C deg 33.2 % 1026.5 hPa 0 C deg
1788601136 998 hPa 32.3 C deg 34.2 % 1026.9 hPa 0 C deg
1788599306 998.2 hPa 31.3 C deg 35.7 % 1027.2 hPa 0 C deg
1788597476 998.1 hPa 30.3 C deg 37.1 % 1027.2 hPa 0 C deg
1788595646 997.9 hPa 29.1 C deg 38.5 % 1027.1 hPa 0 C deg
1788593816 997.9 hPa 28.1 C deg 39.6 % 1027.2 hPa 0 C deg
1788591985 997.8 hPa 27.6 C deg 39.9 % 1027.2 hPa 0 C deg
1788590200 997.5 hPa 27.5 C deg 40.1 % 1026.9 hPa 0 C deg
1788590155 997.5 hPa 27.5 C deg 40.1 % 1026.9 hPa 0 C deg
1788588325 997.3 hPa 27.7 C deg 39.8 % 1026.7 hPa 0 C deg
1788586495 997.2 hPa 27.5 C deg 40.1 % 1026.5 hPa 0 C deg
1788584665 996.9 hPa 27.5 C deg 40.3 % 1026.2 hPa 0 C deg
1788582835 996.8 hPa 27.6 C deg 40.5 % 1026.1 hPa 0 C deg
1788581005 996.8 hPa 27.6 C deg 40.7 % 1026.1 hPa 0 C deg
1788579175 996.9 hPa 27.5 C deg 41.1 % 1026.2 hPa 0 C deg
1788577366 996.7 hPa 27.7 C deg 41.3 % 1026 hPa 0 C deg
1788577344 996.7 hPa 27.7 C deg 41.3 % 1026 hPa 0 C deg
1788575562 996.8 hPa 27.8 C deg 41.6 % 1026.1 hPa 0 C deg
1788575514 996.8 hPa 27.8 C deg 41.6 % 1026.1 hPa 0 C deg
1788573705 996.7 hPa 28 C deg 41.9 % 1026 hPa 0 C deg
1788573684 996.7 hPa 28 C deg 41.9 % 1026 hPa 0 C deg
*Used Equation Coefficients:
Press: 0, 1, 0
Temp.in: 0, 1, 0
Hum: 0, 1, 0
QNH: 0, 1, 0
Temp.out: 0, 1, 0

  • The parameter names for the analog channels will be Value1, Value2, Value3 (up to Value5) if station has not sent a PARAM-packet that specifies the parameter names for each analog channel.
  • Each analog value is a decimal number between 000 and 255 (according to APRS specifications). The receiver use the telemetry equation coefficientsto to restore the original sensor values. If no EQNS-packet with equation coefficients is sent we will show the values as is (this corresponds to the equation coefficients a=0, b=1 and c=0).
    The sent equation coefficients is used in the equation: a * value2 + b * value + c.
  • The units for the analog values will not be shown if station has not sent a UNIT-packet specifying what unit's to use.
  • The parameter names for the digital bits will be Bit1, Bit2, Bit3 (up to Bit8) if station has not sent a PARAM-packet that specifies the parameter names for each digital bit.
  • All bit labels will be named "On" if station has not sent a UNIT-packet that specifies the label of each bit.
  • A bit is considered to be On when the bit is 1 if station has not sent a BITS-packet that specifies another "Bit sense" (a BITS-packet specify the state of the bits that match the BIT labels)